Time;durP1;ratioP1;P1;durP2;ratioP2;P2;SDS_P1;SDS_P2;PMS_P1;PMS_P2;Temp;Humidity;BMP_temperature;BMP_pressure;BME280_temperature;BME280_humidity;BME280_pressure;Samples;Min_cycle;Max_cycle;Signal;HPM_P1;HPM_P2
2023/01/26 00:00:48;;;;;;;8.53;7.73;;;15.40;54.90;16.30;101671.00;;;;5029541;28;20653;-47
2023/01/26 00:03:14;;;;;;;8.47;7.67;;;15.40;55.00;16.00;101681.00;;;;5028749;28;20242;-47
2023/01/26 00:05:40;;;;;;;8.30;7.53;;;15.40;54.80;16.20;101672.00;;;;5027583;28;20557;-48
2023/01/26 00:08:06;;;;;;;9.50;7.53;;;15.40;54.90;16.20;101681.00;;;;5027507;28;20172;-47
2023/01/26 00:10:31;;;;;;;8.97;8.07;;;15.30;54.80;16.20;101677.00;;;;5031439;28;20199;-47
2023/01/26 00:12:57;;;;;;;7.73;7.03;;;15.30;54.90;16.20;101681.00;;;;5030475;28;20167;-47
2023/01/26 00:15:23;;;;;;;8.20;7.40;;;15.30;54.90;16.20;101675.00;;;;5030955;28;20221;-48
2023/01/26 00:17:51;;;;;;;8.10;7.40;;;15.30;55.00;16.10;101678.00;;;;5031061;28;20171;-48
2023/01/26 00:20:17;;;;;;;8.03;7.23;;;15.30;55.00;16.10;101670.00;;;;5030632;28;20238;-47
2023/01/26 00:22:43;;;;;;;8.47;7.67;;;15.20;54.90;16.10;101665.00;;;;5031102;28;20639;-48
2023/01/26 00:25:09;;;;;;;8.93;7.67;;;15.20;54.80;16.10;101657.00;;;;5031120;28;20225;-50
2023/01/26 00:27:35;;;;;;;8.77;7.90;;;15.20;54.90;16.10;101654.00;;;;5030899;28;20167;-48
2023/01/26 00:30:02;;;;;;;8.30;7.50;;;15.20;54.90;16.00;101660.00;;;;5031295;28;20235;-47
2023/01/26 00:32:28;;;;;;;8.73;7.83;;;15.20;54.90;16.00;101639.00;;;;5029480;28;20198;-47
2023/01/26 00:34:53;;;;;;;8.27;7.47;;;15.20;54.90;16.00;101646.00;;;;5030963;28;20714;-47
2023/01/26 00:37:19;;;;;;;8.43;7.63;;;15.20;54.90;16.00;101641.00;;;;5031034;28;20238;-47
2023/01/26 00:39:45;;;;;;;8.47;7.67;;;15.10;54.90;16.00;101631.00;;;;5038043;28;20226;-47
2023/01/26 00:42:12;;;;;;;7.87;7.17;;;15.10;54.90;16.00;101634.00;;;;5031109;28;20197;-47
2023/01/26 00:44:39;;;;;;;7.87;7.17;;;15.10;54.80;16.00;101642.00;;;;5031030;28;20182;-47
2023/01/26 00:47:06;;;;;;;8.20;7.40;;;15.00;54.90;15.90;101627.00;;;;5030282;28;20178;-47
2023/01/26 00:49:32;;;;;;;8.23;7.43;;;15.00;55.10;15.90;101635.00;;;;5030691;28;20694;-47
2023/01/26 00:51:58;;;;;;;8.03;7.33;;;15.00;55.00;15.90;101631.00;;;;5030165;28;20174;-47
2023/01/26 00:54:24;;;;;;;8.43;7.63;;;15.00;55.00;15.90;101629.00;;;;5030859;28;20206;-47
2023/01/26 00:56:49;;;;;;;8.30;7.50;;;15.00;54.90;15.90;101619.00;;;;5030442;28;20226;-47
2023/01/26 00:59:15;;;;;;;8.80;8.00;;;15.00;54.80;15.90;101618.00;;;;5030597;28;20581;-47
2023/01/26 01:01:41;;;;;;;8.50;7.70;;;15.00;54.90;15.80;101618.00;;;;5029468;28;20175;-47
2023/01/26 01:04:06;;;;;;;8.53;7.63;;;15.00;55.00;15.80;101618.00;;;;5030455;28;20171;-47
2023/01/26 01:06:32;;;;;;;7.97;7.20;;;15.00;54.90;15.80;101618.00;;;;5030213;28;20184;-47
2023/01/26 01:08:58;;;;;;;8.60;7.80;;;14.90;54.90;15.80;101619.00;;;;5036021;28;20191;-47
2023/01/26 01:11:24;;;;;;;8.57;7.77;;;14.90;54.90;15.80;101612.00;;;;5032468;28;20175;-47
2023/01/26 01:13:49;;;;;;;9.40;8.50;;;14.90;54.90;15.80;101608.00;;;;5030354;28;20182;-47
2023/01/26 01:16:15;;;;;;;8.70;7.80;;;14.90;55.00;15.80;101620.00;;;;5030031;28;20206;-47
2023/01/26 01:18:41;;;;;;;9.07;8.20;;;14.80;55.00;15.70;101604.00;;;;5030646;28;20175;-47
2023/01/26 01:21:08;;;;;;;8.23;7.43;;;14.90;55.10;15.70;101605.00;;;;5029059;28;20220;-47
2023/01/26 01:23:34;;;;;;;9.37;8.30;;;14.80;54.90;15.70;101616.00;;;;5029781;28;20171;-47
2023/01/26 01:26:00;;;;;;;8.23;7.43;;;14.80;55.00;15.70;101606.00;;;;5029917;28;20309;-47
2023/01/26 01:28:26;;;;;;;8.33;7.60;;;14.80;55.00;15.70;101594.00;;;;5030138;28;20177;-47
2023/01/26 01:30:51;;;;;;;9.17;8.27;;;14.80;55.00;15.70;101591.00;;;;5029980;28;20206;-47
2023/01/26 01:33:17;;;;;;;8.37;7.57;;;14.80;55.00;15.70;101594.00;;;;5029664;28;20179;-47
2023/01/26 01:35:43;;;;;;;8.23;7.43;;;14.80;54.90;15.60;101583.00;;;;5029737;28;20578;-47
2023/01/26 01:38:09;;;;;;;8.30;7.50;;;14.80;55.00;15.60;101583.00;;;;5029644;28;20662;-47
2023/01/26 01:40:34;;;;;;;8.47;7.67;;;14.80;55.00;15.60;101579.00;;;;5029875;28;20191;-47
2023/01/26 01:43:00;;;;;;;8.80;8.00;;;14.70;54.90;15.60;101581.00;;;;5029296;28;20180;-47
2023/01/26 01:45:26;;;;;;;8.83;8.03;;;14.70;55.60;15.60;101575.00;;;;5029013;28;20171;-47
2023/01/26 01:47:59;;;;;;;9.43;8.50;;;14.70;55.60;15.60;101583.00;;;;5029540;28;20649;-47
2023/01/26 01:50:25;;;;;;;8.80;7.90;;;14.70;55.70;15.50;101578.00;;;;5028181;28;20191;-47
2023/01/26 01:52:52;;;;;;;8.67;7.80;;;14.60;55.50;15.50;101569.00;;;;5027945;28;20209;-47
2023/01/26 01:55:17;;;;;;;8.47;7.73;;;14.60;55.60;15.50;101494.00;;;;5028224;28;20163;-47
2023/01/26 01:57:50;;;;;;;9.20;8.40;;;14.60;55.60;15.50;101565.00;;;;5027694;28;20190;-48
2023/01/26 02:00:21;;;;;;;9.00;8.10;;;14.50;55.60;15.50;101555.00;;;;5011870;28;20694;-48
2023/01/26 02:06:15;;;;;;;8.53;7.73;;;14.50;55.60;15.40;101555.00;;;;5014783;28;20599;-48
2023/01/26 02:08:51;;;;;;;8.37;7.57;;;14.50;55.50;15.40;101579.00;;;;5027807;28;20278;-46
2023/01/26 02:11:26;;;;;;;9.10;8.30;;;14.50;55.70;15.40;101560.00;;;;5031072;28;20167;-47
2023/01/26 02:13:52;;;;;;;9.03;8.13;;;14.50;55.60;15.40;101563.00;;;;5027797;28;20163;-47
2023/01/26 02:16:18;;;;;;;9.20;8.30;;;14.50;55.80;15.40;101547.00;;;;5027656;28;20272;-48
2023/01/26 02:18:44;;;;;;;8.83;8.03;;;14.40;55.70;15.40;101531.00;;;;5028347;28;20174;-47
2023/01/26 02:21:20;;;;;;;8.93;8.03;;;14.40;55.60;15.30;101538.00;;;;5027427;28;20198;-47
2023/01/26 02:24:05;;;;;;;8.73;7.93;;;14.40;55.60;15.30;101532.00;;;;5029185;28;20258;-47
2023/01/26 02:26:34;;;;;;;8.47;7.67;;;14.40;55.60;15.30;101516.00;;;;5028103;28;20584;-46
2023/01/26 02:29:00;;;;;;;8.83;8.00;;;14.40;55.70;15.30;101533.00;;;;5027223;28;20307;-47
2023/01/26 02:31:26;;;;;;;9.13;8.33;;;14.40;55.70;15.30;101525.00;;;;5028407;28;20179;-51
2023/01/26 02:33:52;;;;;;;9.20;8.30;;;14.40;55.70;15.30;101535.00;;;;5030300;28;20179;-47
2023/01/26 02:36:26;;;;;;;8.90;8.00;;;14.40;55.60;15.30;101539.00;;;;5031392;28;20254;-47
2023/01/26 02:39:23;;;;;;;9.77;8.30;;;14.40;55.50;15.30;101537.00;;;;5029755;28;20206;-47
2023/01/26 02:44:34;;;;;;;9.17;8.27;;;14.40;55.30;15.20;101523.00;;;;5027577;28;20170;-47
2023/01/26 02:46:59;;;;;;;9.00;8.13;;;14.40;55.30;15.20;101529.00;;;;5027821;28;20217;-47
2023/01/26 02:49:46;;;;;;;9.33;8.43;;;14.40;55.30;15.20;101528.00;;;;5033883;28;20195;-47
2023/01/26 02:52:14;;;;;;;8.93;8.13;;;14.40;55.30;15.20;101528.00;;;;5038203;28;20189;-47
2023/01/26 02:57:25;;;;;;;9.53;8.63;;;14.40;55.30;15.20;101530.00;;;;5030155;28;20240;-47
2023/01/26 02:59:51;;;;;;;8.80;8.00;;;14.40;55.30;15.20;101539.00;;;;5028754;28;20198;-47
2023/01/26 03:02:16;;;;;;;9.40;8.57;;;14.30;55.10;15.20;101523.00;;;;5028511;28;20250;-47
2023/01/26 03:04:43;;;;;;;8.90;8.10;;;14.30;55.20;15.10;101517.00;;;;5028322;28;20258;-47
2023/01/26 03:07:09;;;;;;;8.67;7.87;;;14.30;55.20;15.10;101520.00;;;;5028731;28;20197;-48
2023/01/26 03:09:35;;;;;;;9.47;8.57;;;14.30;55.20;15.10;101507.00;;;;5028268;28;20666;-47
2023/01/26 03:12:01;;;;;;;9.33;8.43;;;14.30;55.20;15.10;101518.00;;;;5027946;28;20324;-47
2023/01/26 03:14:26;;;;;;;9.67;8.77;;;14.30;55.30;15.10;101512.00;;;;5026967;28;20229;-47
2023/01/26 03:16:52;;;;;;;9.53;8.63;;;14.30;55.30;15.10;101506.00;;;;5028080;28;20207;-46
2023/01/26 03:27:37;;;;;;;9.13;8.23;;;14.20;55.10;15.00;101515.00;;;;5028162;28;20228;-47
2023/01/26 03:30:03;;;;;;;8.97;8.13;;;14.20;55.20;15.00;101508.00;;;;5026916;28;20202;-47
2023/01/26 03:32:29;;;;;;;9.40;8.50;;;14.20;55.20;15.00;101510.00;;;;5027772;28;20190;-48
2023/01/26 03:34:55;;;;;;;9.07;8.17;;;14.10;55.10;15.00;101502.00;;;;5027804;28;20187;-47
2023/01/26 03:37:23;;;;;;;9.23;8.33;;;14.20;55.10;15.00;101499.00;;;;5027606;28;20210;-48
2023/01/26 03:56:21;;;;;;;8.10;7.30;;;14.00;55.90;14.90;101496.00;;;;5031902;28;20269;-47
2023/01/26 03:58:50;;;;;;;10.87;9.03;;;14.10;55.70;14.90;101494.00;;;;5031588;28;20166;-47
2023/01/26 04:01:20;;;;;;;9.93;8.63;;;14.00;55.60;14.90;101497.00;;;;5031053;28;20168;-47
2023/01/26 04:09:19;;;;;;;12.00;10.30;;;14.00;55.40;14.80;101488.00;;;;5048864;28;20206;-48
2023/01/26 04:11:45;;;;;;;12.40;11.10;;;14.00;55.30;14.80;101481.00;;;;5044164;28;20333;-47
2023/01/26 04:22:25;;;;;;;13.23;11.57;;;13.90;54.90;14.70;101488.00;;;;5030660;28;20210;-47
2023/01/26 04:24:51;;;;;;;15.23;12.90;;;13.90;54.80;14.70;101492.00;;;;5031110;28;20178;-47
2023/01/26 04:27:17;;;;;;;14.30;12.80;;;13.80;54.70;14.70;101491.00;;;;5030993;28;20207;-47
2023/01/26 04:29:43;;;;;;;15.47;13.73;;;13.80;54.60;14.60;101492.00;;;;5030619;28;20194;-47
2023/01/26 04:32:08;;;;;;;14.87;13.30;;;13.80;54.70;14.60;101494.00;;;;5030281;28;20183;-47
2023/01/26 04:34:34;;;;;;;16.93;13.53;;;13.80;54.70;14.60;101490.00;;;;5031013;28;20175;-47
2023/01/26 04:37:00;;;;;;;15.07;13.20;;;13.80;54.70;14.60;101488.00;;;;5030459;28;20206;-47
2023/01/26 04:39:25;;;;;;;18.60;13.73;;;13.80;54.80;14.60;101486.00;;;;5030940;28;20194;-47
2023/01/26 04:41:51;;;;;;;14.80;13.30;;;13.80;54.80;14.60;101488.00;;;;5031099;28;20760;-48
2023/01/26 04:44:17;;;;;;;14.93;13.33;;;13.80;54.80;14.60;101486.00;;;;5030906;28;20178;-47
2023/01/26 04:46:42;;;;;;;14.60;12.40;;;13.80;54.80;14.60;101480.00;;;;5030942;28;20683;-47
2023/01/26 04:49:09;;;;;;;14.83;12.70;;;13.80;54.80;14.60;101487.00;;;;5031565;28;20254;-46
2023/01/26 04:51:34;;;;;;;14.63;12.73;;;13.80;54.90;14.60;101491.00;;;;5031299;28;20191;-47
2023/01/26 04:54:00;;;;;;;13.47;12.07;;;13.80;54.90;14.60;101479.00;;;;5031225;28;20174;-47
2023/01/26 04:56:31;;;;;;;14.27;12.47;;;13.70;54.90;14.60;101488.00;;;;5031431;28;20210;-47
2023/01/26 04:58:58;;;;;;;14.20;12.33;;;13.70;54.90;14.60;101491.00;;;;5031397;28;20562;-48
2023/01/26 05:01:24;;;;;;;14.00;11.97;;;13.70;54.90;14.60;101488.00;;;;5031033;28;20182;-47
2023/01/26 05:03:50;;;;;;;14.23;11.70;;;13.70;54.90;14.50;101495.00;;;;5031687;28;20179;-47
2023/01/26 05:06:15;;;;;;;13.07;11.67;;;13.70;54.90;14.50;101493.00;;;;5032911;28;20233;-48
2023/01/26 05:08:41;;;;;;;13.50;12.10;;;13.70;54.90;14.50;101478.00;;;;5036952;28;20190;-47
2023/01/26 05:11:07;;;;;;;12.73;11.43;;;13.70;54.90;14.50;101492.00;;;;5034405;28;20202;-47
2023/01/26 05:13:34;;;;;;;12.87;11.57;;;13.70;54.90;14.50;101494.00;;;;5034799;28;20237;-46
2023/01/26 05:16:01;;;;;;;12.90;11.60;;;13.60;54.90;14.50;101492.00;;;;5032664;28;20195;-47
2023/01/26 05:18:27;;;;;;;11.67;10.47;;;13.70;55.00;14.50;101490.00;;;;5020401;28;20225;-46
2023/01/26 05:20:53;;;;;;;12.93;11.53;;;13.70;54.90;14.50;101487.00;;;;5010632;28;20211;-46
2023/01/26 05:23:20;;;;;;;12.27;10.97;;;13.60;54.90;14.50;101482.00;;;;5023536;28;20174;-49
2023/01/26 05:25:46;;;;;;;12.73;11.33;;;13.60;55.00;14.50;101471.00;;;;5018905;28;20215;-48
2023/01/26 05:28:12;;;;;;;12.33;11.03;;;13.60;55.60;14.40;101474.00;;;;5025660;28;20179;-46
2023/01/26 05:30:37;;;;;;;12.23;10.93;;;13.60;55.00;14.40;101479.00;;;;5029599;28;20214;-49
2023/01/26 05:33:04;;;;;;;11.87;10.57;;;13.60;55.10;14.40;101476.00;;;;5029781;28;20608;-47
2023/01/26 05:35:30;;;;;;;13.60;11.03;;;13.60;55.20;14.40;101499.00;;;;5030226;28;20210;-48
2023/01/26 05:37:55;;;;;;;13.33;11.00;;;13.60;55.30;14.40;101466.00;;;;5029864;28;20258;-47
2023/01/26 05:40:21;;;;;;;12.77;10.40;;;13.50;55.50;14.40;101490.00;;;;5029885;28;20718;-49
2023/01/26 05:42:47;;;;;;;11.60;10.40;;;13.60;55.70;14.40;101486.00;;;;5029760;28;20175;-48
2023/01/26 05:45:13;;;;;;;11.90;10.60;;;13.50;55.50;14.40;101492.00;;;;5030679;28;20187;-48
2023/01/26 05:47:38;;;;;;;11.60;10.37;;;13.50;55.50;14.40;101493.00;;;;5030799;28;20185;-48
2023/01/26 05:50:05;;;;;;;12.23;10.93;;;13.50;55.50;14.30;101493.00;;;;5031897;28;20199;-48
2023/01/26 05:52:31;;;;;;;11.83;10.40;;;13.40;55.50;14.30;101485.00;;;;5029828;28;20179;-48
2023/01/26 05:54:57;;;;;;;10.63;9.50;;;13.50;55.50;14.30;101482.00;;;;5028549;28;20190;-48
2023/01/26 05:57:22;;;;;;;11.87;10.67;;;13.50;55.50;14.30;101495.00;;;;5029460;28;20294;-47
2023/01/26 05:59:48;;;;;;;11.20;10.00;;;13.50;55.50;14.30;101491.00;;;;5029254;28;20530;-47
2023/01/26 06:02:14;;;;;;;11.50;10.33;;;13.50;55.50;14.30;101489.00;;;;5029611;28;20262;-48
2023/01/26 06:04:40;;;;;;;10.40;9.33;;;13.50;55.50;14.30;101498.00;;;;5030126;28;20179;-47
2023/01/26 06:07:05;;;;;;;11.23;10.10;;;13.50;55.50;14.30;101507.00;;;;5029339;28;20171;-47
2023/01/26 06:09:31;;;;;;;11.27;10.07;;;13.50;55.40;14.30;101497.00;;;;5029492;28;20257;-47
2023/01/26 06:11:57;;;;;;;11.33;10.23;;;13.40;55.30;14.30;101502.00;;;;5029733;28;20229;-47
2023/01/26 06:14:23;;;;;;;10.97;9.83;;;13.40;55.30;14.20;101500.00;;;;5029295;28;20186;-47
2023/01/26 06:16:49;;;;;;;10.40;9.30;;;13.40;55.40;14.20;101505.00;;;;5029528;28;20617;-47
2023/01/26 06:19:15;;;;;;;11.40;10.03;;;13.40;55.40;14.20;101507.00;;;;5029376;28;20195;-47
2023/01/26 06:21:40;;;;;;;10.67;9.57;;;13.40;55.40;14.20;101518.00;;;;5028896;28;20690;-47
2023/01/26 06:24:06;;;;;;;10.13;9.13;;;13.40;55.40;14.20;101479.00;;;;5029527;28;20221;-47
2023/01/26 06:26:32;;;;;;;10.20;9.20;;;13.40;55.30;14.20;101519.00;;;;5029755;28;20236;-47
2023/01/26 06:28:58;;;;;;;11.43;10.30;;;13.40;55.40;14.20;101519.00;;;;5029055;28;20194;-47
2023/01/26 06:31:23;;;;;;;11.23;9.83;;;13.40;55.50;14.20;101511.00;;;;5034122;28;20202;-47
2023/01/26 06:33:49;;;;;;;10.77;9.67;;;13.40;55.40;14.20;101506.00;;;;5036613;28;20232;-48
2023/01/26 06:36:15;;;;;;;11.47;10.37;;;13.40;55.40;14.10;101508.00;;;;5029613;28;20205;-46
2023/01/26 06:38:45;;;;;;;10.70;9.60;;;13.30;55.40;14.10;101510.00;;;;5027911;28;20661;-47
2023/01/26 06:41:11;;;;;;;11.03;9.83;;;13.30;55.40;14.10;101507.00;;;;5028943;28;20163;-48
2023/01/26 06:43:37;;;;;;;10.27;9.27;;;13.30;55.40;14.10;101523.00;;;;5029242;28;20265;-46
2023/01/26 06:46:03;;;;;;;11.00;9.80;;;13.30;55.50;14.10;101510.00;;;;5028447;28;20175;-48
2023/01/26 06:48:32;;;;;;;10.77;9.67;;;13.30;55.70;14.10;101519.00;;;;5039986;28;20179;-46
2023/01/26 06:51:09;;;;;;;10.37;9.37;;;13.20;55.70;14.10;101517.00;;;;5035812;28;20213;-47
2023/01/26 06:53:40;;;;;;;10.40;9.30;;;13.30;56.00;14.10;101520.00;;;;5031149;28;20171;-47
2023/01/26 06:56:06;;;;;;;9.70;8.70;;;13.30;56.10;14.10;101512.00;;;;5032504;28;20783;-47
2023/01/26 06:58:32;;;;;;;9.97;8.97;;;13.40;56.00;14.20;101519.00;;;;5029108;28;20175;-47
2023/01/26 07:00:57;;;;;;;9.63;8.63;;;13.40;56.00;14.20;101523.00;;;;5028072;28;20195;-46
2023/01/26 07:03:23;;;;;;;10.00;9.00;;;13.40;56.00;14.20;101517.00;;;;5030067;28;20174;-47
2023/01/26 07:05:49;;;;;;;9.93;8.93;;;13.50;56.00;14.30;101524.00;;;;5037280;28;20171;-49
2023/01/26 07:08:14;;;;;;;9.10;8.20;;;13.50;56.00;14.30;101523.00;;;;5037879;28;20167;-47
2023/01/26 07:10:40;;;;;;;9.10;8.20;;;13.50;56.00;14.30;101519.00;;;;5037259;28;20664;-48
2023/01/26 07:13:06;;;;;;;9.40;8.50;;;13.50;56.00;14.30;101518.00;;;;5030896;28;20166;-48
2023/01/26 07:15:32;;;;;;;9.37;8.47;;;13.50;56.00;14.30;101511.00;;;;5031899;28;20182;-47
2023/01/26 07:17:57;;;;;;;8.87;7.97;;;13.50;56.00;14.30;101518.00;;;;5029077;28;20183;-48
2023/01/26 07:20:23;;;;;;;9.23;8.33;;;13.50;56.00;14.30;101510.00;;;;5032333;28;20206;-47
2023/01/26 07:22:49;;;;;;;9.60;8.70;;;13.50;55.90;14.30;101500.00;;;;5032063;28;20174;-47
2023/01/26 07:25:16;;;;;;;9.70;8.70;;;13.50;55.90;14.30;101512.00;;;;5032919;28;20166;-47
2023/01/26 07:27:42;;;;;;;9.23;8.33;;;13.60;56.00;14.40;101504.00;;;;5032693;28;20174;-47
2023/01/26 07:30:09;;;;;;;9.40;8.50;;;13.50;56.00;14.40;101510.00;;;;5031244;28;20195;-51
2023/01/26 07:32:35;;;;;;;9.33;8.47;;;13.50;56.00;14.40;101525.00;;;;5030254;28;20675;-47
2023/01/26 07:35:01;;;;;;;9.07;8.17;;;13.50;56.10;14.40;101526.00;;;;5033549;28;20163;-47
2023/01/26 07:37:29;;;;;;;8.90;8.00;;;13.60;56.30;14.40;101517.00;;;;5032958;28;20226;-47
2023/01/26 07:39:55;;;;;;;10.10;8.67;;;13.60;56.30;14.30;101511.00;;;;5035889;28;20191;-51
2023/01/26 07:42:21;;;;;;;10.03;8.70;;;13.60;56.60;14.40;101513.00;;;;5037863;28;20228;-47
2023/01/26 07:44:47;;;;;;;8.97;8.07;;;13.60;56.40;14.40;101500.00;;;;5034335;28;20167;-47
2023/01/26 07:47:16;;;;;;;11.90;7.73;;;13.60;56.70;14.40;101502.00;;;;5032390;28;20764;-49
2023/01/26 07:49:41;;;;;;;8.73;7.83;;;13.70;56.90;14.50;101514.00;;;;5032071;28;20191;-48
2023/01/26 07:52:08;;;;;;;9.07;7.93;;;13.70;56.80;14.50;101521.00;;;;5032109;28;20756;-48
2023/01/26 07:54:33;;;;;;;8.73;7.83;;;13.80;56.80;14.50;101521.00;;;;5032371;28;20171;-49
2023/01/26 07:56:59;;;;;;;8.20;7.40;;;13.90;56.70;14.60;101519.00;;;;5032486;28;20298;-47
2023/01/26 07:59:25;;;;;;;8.70;7.80;;;14.00;56.70;14.70;101512.00;;;;5040026;28;20190;-56
2023/01/26 08:01:51;;;;;;;8.83;7.93;;;14.10;56.80;14.80;101511.00;;;;5047872;28;20155;-47
2023/01/26 08:04:16;;;;;;;9.33;8.00;;;14.20;56.90;14.90;101516.00;;;;5035762;28;20264;-47
2023/01/26 08:06:42;;;;;;;9.30;7.57;;;14.30;56.90;15.00;101521.00;;;;5032064;28;20175;-46
2023/01/26 08:09:08;;;;;;;8.60;7.00;;;14.30;56.70;15.10;101514.00;;;;5031981;28;20224;-47
2023/01/26 08:11:34;;;;;;;10.53;7.73;;;14.50;57.00;15.20;101509.00;;;;5031597;28;20553;-46
2023/01/26 08:13:59;;;;;;;8.10;7.00;;;14.50;56.90;15.30;101521.00;;;;5031762;28;20198;-48
2023/01/26 08:16:25;;;;;;;11.67;7.67;;;14.60;56.90;15.40;101532.00;;;;5031705;28;20191;-46
2023/01/26 08:18:51;;;;;;;22.80;8.00;;;14.80;57.10;15.50;101527.00;;;;5026658;28;20569;-48
2023/01/26 08:21:17;;;;;;;15.63;8.43;;;14.80;57.50;15.60;101527.00;;;;5028198;28;20190;-47
2023/01/26 08:23:47;;;;;;;14.20;8.30;;;14.90;57.50;15.70;101528.00;;;;5030514;28;20274;-48
2023/01/26 08:26:13;;;;;;;12.83;7.60;;;15.00;57.60;15.70;101527.00;;;;5031949;28;20189;-47
2023/01/26 08:28:39;;;;;;;11.37;7.80;;;15.10;57.80;15.80;101531.00;;;;5036083;28;20183;-47
2023/01/26 08:31:18;;;;;;;16.43;8.83;;;15.10;57.70;15.90;101528.00;;;;5034620;28;20186;-47
2023/01/26 08:33:44;;;;;;;12.67;8.20;;;15.10;58.00;15.90;101533.00;;;;5029218;28;20191;-48
2023/01/26 08:36:12;;;;;;;13.20;7.10;;;15.20;57.90;16.00;101536.00;;;;5031138;28;20553;-47
2023/01/26 08:38:38;;;;;;;11.77;7.40;;;15.30;58.40;16.10;101531.00;;;;5029979;28;20178;-49
2023/01/26 08:41:04;;;;;;;11.43;7.63;;;15.40;58.70;16.20;101534.00;;;;5031243;28;20179;-47
2023/01/26 08:43:30;;;;;;;10.93;7.37;;;15.40;59.00;16.20;101544.00;;;;5031675;28;20175;-47
2023/01/26 08:45:55;;;;;;;14.33;7.97;;;15.50;59.00;16.30;101535.00;;;;5032172;28;20545;-47
2023/01/26 08:48:21;;;;;;;15.67;7.47;;;15.60;59.00;16.40;101528.00;;;;5031109;28;20175;-47
2023/01/26 08:50:47;;;;;;;12.53;7.73;;;15.60;59.00;16.40;101532.00;;;;5032219;28;20195;-47
2023/01/26 08:53:13;;;;;;;13.50;7.07;;;15.70;58.90;16.50;101542.00;;;;5032160;28;20175;-47
2023/01/26 08:55:38;;;;;;;13.77;8.40;;;15.80;58.80;16.50;101540.00;;;;5032293;28;20201;-47
2023/01/26 08:58:04;;;;;;;12.37;7.90;;;15.80;58.50;16.60;101545.00;;;;5031557;28;20179;-48
2023/01/26 09:00:30;;;;;;;10.60;7.27;;;15.80;58.20;16.60;101549.00;;;;5030761;28;20270;-48
2023/01/26 09:03:03;;;;;;;11.07;8.00;;;15.90;58.30;16.70;101547.00;;;;5030559;28;20242;-48
2023/01/26 09:05:36;;;;;;;12.87;7.83;;;15.90;58.20;16.70;101540.00;;;;5031058;28;20167;-48
2023/01/26 09:08:03;;;;;;;11.03;7.77;;;15.90;58.00;16.70;101549.00;;;;5031963;28;20160;-48
2023/01/26 09:10:29;;;;;;;13.17;7.97;;;15.90;57.90;16.70;101553.00;;;;5031683;28;20198;-48
2023/01/26 09:12:56;;;;;;;10.23;7.53;;;15.90;57.90;16.80;101557.00;;;;5036983;28;20182;-48
2023/01/26 09:15:22;;;;;;;9.33;7.33;;;15.90;57.70;16.70;101549.00;;;;5037101;28;20169;-47
2023/01/26 09:17:48;;;;;;;10.50;7.43;;;15.90;57.60;16.80;101558.00;;;;5031695;28;20290;-48
2023/01/26 09:20:14;;;;;;;8.53;7.57;;;15.90;57.60;16.80;101550.00;;;;5031400;28;20203;-47
2023/01/26 09:22:41;;;;;;;8.30;7.23;;;15.90;57.60;16.70;101563.00;;;;5031564;28;20183;-47
2023/01/26 09:25:07;;;;;;;10.50;7.43;;;15.90;57.60;16.70;101563.00;;;;5031512;28;20284;-47
2023/01/26 09:27:33;;;;;;;8.70;7.73;;;15.90;57.60;16.70;101567.00;;;;5031661;28;20182;-47
2023/01/26 09:29:59;;;;;;;9.77;8.00;;;15.90;57.60;16.70;101562.00;;;;5031908;28;20199;-47
2023/01/26 09:32:24;;;;;;;9.97;7.53;;;15.90;57.60;16.70;101566.00;;;;5031553;28;20175;-47
2023/01/26 09:34:50;;;;;;;9.67;7.73;;;15.90;57.60;16.70;101554.00;;;;5031569;28;20175;-48
2023/01/26 09:37:16;;;;;;;8.90;7.97;;;15.90;57.60;16.70;101555.00;;;;5031531;28;20210;-47
2023/01/26 09:39:42;;;;;;;7.77;7.07;;;15.80;57.30;16.70;101572.00;;;;5031534;28;20187;-47
2023/01/26 09:42:30;;;;;;;10.07;8.07;;;15.90;57.40;16.70;101568.00;;;;5030495;28;20175;-47
2023/01/26 09:45:21;;;;;;;10.03;7.43;;;15.80;57.30;16.60;101569.00;;;;5030682;28;20533;-48
2023/01/26 09:48:00;;;;;;;8.97;7.50;;;15.80;57.30;16.60;101568.00;;;;5030407;28;20631;-48
2023/01/26 09:50:49;;;;;;;8.87;7.67;;;15.80;57.30;16.60;101565.00;;;;5033215;28;20197;-46
2023/01/26 09:53:40;;;;;;;9.40;7.50;;;15.70;57.20;16.50;101568.00;;;;5032343;28;20159;-47
2023/01/26 09:56:15;;;;;;;8.47;7.30;;;15.70;57.30;16.50;101563.00;;;;5029652;28;20218;-47
2023/01/26 09:58:42;;;;;;;9.40;7.17;;;15.70;57.30;16.50;101561.00;;;;5029475;28;20170;-47
2023/01/26 10:01:38;;;;;;;7.97;7.17;;;15.70;57.20;16.50;101557.00;;;;5029669;28;20228;-46
2023/01/26 10:04:35;;;;;;;11.23;7.73;;;15.70;57.20;16.50;101559.00;;;;5029642;28;20191;-48
2023/01/26 10:07:04;;;;;;;8.10;7.30;;;15.70;57.10;16.40;101557.00;;;;5038182;28;20232;-47
2023/01/26 10:09:36;;;;;;;8.90;7.43;;;15.70;57.00;16.40;101557.00;;;;5029588;28;20698;-47
2023/01/26 10:12:07;;;;;;;7.90;7.10;;;15.60;57.00;16.40;101536.00;;;;5029923;28;20516;-48
2023/01/26 10:14:39;;;;;;;7.90;7.10;;;15.60;57.00;16.40;101542.00;;;;5030137;28;20163;-48
2023/01/26 10:17:06;;;;;;;8.23;7.43;;;15.60;57.60;16.40;101539.00;;;;5030069;28;20282;-48
2023/01/26 10:19:38;;;;;;;8.23;7.33;;;15.60;56.90;16.40;101538.00;;;;5029151;28;20198;-48
2023/01/26 10:22:13;;;;;;;7.80;6.97;;;15.60;56.90;16.40;101535.00;;;;5029410;28;20159;-48
2023/01/26 10:24:39;;;;;;;7.90;7.20;;;15.60;56.90;16.40;101533.00;;;;5032452;28;20158;-48
2023/01/26 10:27:09;;;;;;;7.77;6.97;;;15.70;57.00;16.40;101544.00;;;;5037323;28;20179;-49
2023/01/26 10:29:34;;;;;;;8.60;7.43;;;15.60;56.80;16.40;101548.00;;;;5014975;28;20211;-48
2023/01/26 10:32:00;;;;;;;7.63;6.93;;;15.70;56.90;16.40;101534.00;;;;5030166;28;20179;-48
2023/01/26 10:34:26;;;;;;;8.50;7.70;;;15.70;56.80;16.40;101536.00;;;;5028984;28;20723;-51
2023/01/26 10:37:00;;;;;;;7.73;7.03;;;15.70;56.80;16.40;101545.00;;;;5028847;28;20214;-48
2023/01/26 10:39:26;;;;;;;8.57;7.77;;;15.60;56.70;16.40;101533.00;;;;5029220;28;20190;-48
2023/01/26 10:42:01;;;;;;;8.40;6.90;;;15.70;56.80;16.20;101526.00;;;;5029957;28;20179;-48
2023/01/26 10:44:35;;;;;;;7.20;6.50;;;15.60;56.70;16.40;101533.00;;;;5029668;28;20178;-48
2023/01/26 10:47:15;;;;;;;7.77;7.07;;;15.60;56.70;16.40;101527.00;;;;5028736;28;20159;-48
2023/01/26 10:49:41;;;;;;;7.60;6.87;;;15.60;56.70;16.40;101522.00;;;;5030107;28;20563;-49
2023/01/26 10:52:22;;;;;;;8.50;7.43;;;15.60;56.70;16.40;101519.00;;;;5028519;28;20175;-48
2023/01/26 10:55:07;;;;;;;7.97;7.17;;;15.60;56.70;16.40;101521.00;;;;5029279;28;20190;-46
2023/01/26 10:57:39;;;;;;;8.20;7.40;;;15.60;56.70;16.40;101514.00;;;;5029217;28;20195;-47
2023/01/26 11:00:18;;;;;;;7.77;6.97;;;15.60;56.70;16.40;101517.00;;;;5030578;28;20516;-48
2023/01/26 11:02:50;;;;;;;8.40;7.60;;;15.60;56.70;16.40;101515.00;;;;5029719;28;20178;-47
2023/01/26 11:05:24;;;;;;;7.90;7.10;;;15.60;56.60;16.40;101519.00;;;;5030126;28;20621;-47
2023/01/26 11:08:05;;;;;;;7.80;7.10;;;15.60;56.70;16.40;101519.00;;;;5029689;28;20159;-48
2023/01/26 11:10:38;;;;;;;8.10;7.23;;;15.60;56.60;16.40;101519.00;;;;5028716;28;20660;-48
2023/01/26 11:13:19;;;;;;;7.60;6.83;;;15.60;56.60;16.40;101501.00;;;;5028583;28;20702;-48
2023/01/26 11:16:20;;;;;;;7.90;7.10;;;15.60;56.50;16.40;101492.00;;;;5029522;28;20821;-48
2023/01/26 11:18:54;;;;;;;8.13;7.10;;;15.60;56.50;16.40;101498.00;;;;5012924;28;20579;-48
2023/01/26 11:21:26;;;;;;;10.70;6.97;;;15.60;56.50;16.40;101509.00;;;;5035935;28;20187;-47
2023/01/26 11:23:59;;;;;;;7.70;6.93;;;15.60;56.60;16.40;101509.00;;;;5036225;28;20159;-48
2023/01/26 11:26:34;;;;;;;7.53;6.83;;;15.60;56.50;16.40;101503.00;;;;5035835;28;20186;-48
2023/01/26 11:29:16;;;;;;;7.63;6.83;;;15.60;56.50;16.40;101504.00;;;;5030911;28;20285;-48
2023/01/26 11:32:06;;;;;;;7.40;6.70;;;15.60;56.50;16.40;101500.00;;;;5029880;28;20640;-47
2023/01/26 11:35:07;;;;;;;7.60;6.80;;;15.70;56.60;16.40;101501.00;;;;5030154;28;20171;-48